createdAt,value
2022-10-22T00:01:03.310Z,100.00
2022-10-22T00:06:06.445Z,100.00
2022-10-22T00:11:16.900Z,100.00
2022-10-22T00:16:19.853Z,100.00
2022-10-22T00:21:22.671Z,100.00
2022-10-22T00:26:26.924Z,100.00
2022-10-22T00:31:30.533Z,100.00
2022-10-22T00:36:33.326Z,100.00
2022-10-22T00:41:37.760Z,100.00
2022-10-22T00:46:41.820Z,100.00
2022-10-22T00:51:44.645Z,100.00
2022-10-22T00:56:49.226Z,100.00
2022-10-22T01:01:53.268Z,100.00
2022-10-22T01:06:56.115Z,100.00
2022-10-22T01:12:07.969Z,100.00
2022-10-22T01:17:17.650Z,100.00
2022-10-22T01:22:26.278Z,100.00
2022-10-22T01:27:53.860Z,100.00
2022-10-22T01:33:02.684Z,100.00
2022-10-22T01:38:09.921Z,100.00
2022-10-22T01:43:13.125Z,100.00
2022-10-22T01:48:30.128Z,100.00
2022-10-22T01:53:41.921Z,100.00
2022-10-22T01:58:54.475Z,100.00
2022-10-22T02:04:07.343Z,100.00
2022-10-22T02:09:12.034Z,100.00
2022-10-22T02:14:17.133Z,100.00
2022-10-22T02:19:27.190Z,100.00
2022-10-22T02:24:30.581Z,100.00
2022-10-22T02:29:40.091Z,100.00
2022-10-22T02:34:45.376Z,100.00
2022-10-22T02:39:49.409Z,100.00
2022-10-22T02:44:52.197Z,100.00
2022-10-22T02:49:56.294Z,100.00
2022-10-22T02:54:59.133Z,100.00
2022-10-22T03:00:01.968Z,100.00
2022-10-22T03:05:07.029Z,100.00
2022-10-22T03:10:10.846Z,100.00
2022-10-22T03:15:13.692Z,100.00
2022-10-22T03:20:18.033Z,100.00
2022-10-22T03:25:23.692Z,100.00
2022-10-22T03:30:26.436Z,100.00
2022-10-22T03:35:31.757Z,100.00
2022-10-22T03:40:34.690Z,100.00
2022-10-22T03:50:42.695Z,100.00
2022-10-22T03:55:45.492Z,100.00
2022-10-22T04:00:48.349Z,100.00
2022-10-22T04:05:52.723Z,100.00
2022-10-22T04:10:55.450Z,100.00
2022-10-22T04:16:07.962Z,100.00
2022-10-22T04:21:14.186Z,100.00
2022-10-22T04:26:18.288Z,100.00
2022-10-22T04:31:23.131Z,100.00
2022-10-22T04:36:28.439Z,100.00
2022-10-22T04:41:33.222Z,100.00
2022-10-22T04:46:36.617Z,100.00
2022-10-22T04:51:40.986Z,100.00
2022-10-22T04:56:43.743Z,100.00
2022-10-22T05:01:46.528Z,100.00
2022-10-22T05:06:50.933Z,100.00
2022-10-22T05:11:54.592Z,100.00
2022-10-22T05:16:57.318Z,100.00
2022-10-22T05:22:03.632Z,100.00
2022-10-22T05:27:06.830Z,100.00
2022-10-22T05:32:10.686Z,100.00
2022-10-22T05:37:14.799Z,100.00
2022-10-22T05:42:17.520Z,100.00
2022-10-22T05:47:20.324Z,100.00
2022-10-22T05:52:24.563Z,100.00
2022-10-22T05:57:27.269Z,100.00
2022-10-22T06:02:30.163Z,100.00
2022-10-22T06:07:34.822Z,100.00
2022-10-22T06:12:37.647Z,100.00
2022-10-22T06:17:40.876Z,100.00
2022-10-22T06:22:44.945Z,100.00
2022-10-22T06:27:50.521Z,100.00
2022-10-22T06:32:53.218Z,100.00
2022-10-22T06:37:57.321Z,100.00
2022-10-22T06:43:02.828Z,100.00
2022-10-22T06:48:06.005Z,100.00
2022-10-22T06:53:10.149Z,100.00
2022-10-22T06:58:12.978Z,100.00
2022-10-22T07:03:16.490Z,100.00
2022-10-22T07:08:20.569Z,100.00
2022-10-22T07:13:23.621Z,100.00
2022-10-22T07:18:26.551Z,100.00
2022-10-22T07:23:30.718Z,100.00
2022-10-22T07:28:33.516Z,100.00
2022-10-22T07:33:37.283Z,100.00
2022-10-22T07:38:41.387Z,100.00
2022-10-22T07:43:45.002Z,100.00
2022-10-22T07:48:48.212Z,100.00
2022-10-22T07:53:52.346Z,100.00
2022-10-22T07:58:55.120Z,100.00
2022-10-22T08:03:57.993Z,100.00
2022-10-22T08:09:02.469Z,100.00
2022-10-22T08:14:05.399Z,100.00
2022-10-22T08:19:08.200Z,100.00
2022-10-22T08:24:13.210Z,100.00
2022-10-22T08:29:16.151Z,100.00
2022-10-22T08:34:19.070Z,100.00
2022-10-22T08:39:23.251Z,100.00
2022-10-22T08:44:47.899Z,100.00
2022-10-22T08:49:50.945Z,100.00
2022-10-22T08:54:58.255Z,100.00
2022-10-22T09:00:07.337Z,100.00
2022-10-22T09:05:29.406Z,100.00
2022-10-22T09:10:37.722Z,100.00
2022-10-22T09:15:43.730Z,100.00
2022-10-22T09:20:55.631Z,100.00
2022-10-22T09:26:00.741Z,100.00
2022-10-22T09:31:03.649Z,100.00
2022-10-22T09:36:07.921Z,100.00
2022-10-22T09:41:12.044Z,100.00
2022-10-22T09:46:18.074Z,100.00
2022-10-22T09:51:23.513Z,100.00
2022-10-22T09:56:30.232Z,100.00
2022-10-22T10:01:35.657Z,100.00
2022-10-22T10:06:41.008Z,100.00
2022-10-22T10:11:50.414Z,100.00
2022-10-22T10:16:59.677Z,98.42
2022-10-22T10:22:11.809Z,96.81
2022-10-22T10:27:23.882Z,95.25
2022-10-22T10:32:45.852Z,94.27
2022-10-22T10:38:00.909Z,94.25
2022-10-22T10:43:12.248Z,94.62
2022-10-22T10:48:38.800Z,95.48
2022-10-22T10:54:16.363Z,95.11
2022-10-22T10:59:44.153Z,94.61
2022-10-22T11:05:14.070Z,95.31
2022-10-22T11:10:28.744Z,92.87
2022-10-22T11:15:36.047Z,90.68
2022-10-22T11:20:51.768Z,90.75
2022-10-22T11:25:54.643Z,92.05
2022-10-22T11:31:04.027Z,91.54
2022-10-22T11:36:08.602Z,89.80
2022-10-22T11:41:15.331Z,89.41
2022-10-22T11:46:31.279Z,89.21
2022-10-22T11:51:36.436Z,89.09
2022-10-22T11:56:40.328Z,90.43
2022-10-22T12:01:49.069Z,89.49
2022-10-22T12:07:00.761Z,90.49
2022-10-22T12:12:16.957Z,91.24
2022-10-22T12:17:23.777Z,91.35
2022-10-22T12:22:29.262Z,91.54
2022-10-22T12:27:37.332Z,93.18
2022-10-22T12:32:41.754Z,92.20
2022-10-22T12:37:45.050Z,92.54
2022-10-22T12:42:49.765Z,91.87
2022-10-22T12:47:59.251Z,92.28
2022-10-22T12:53:02.210Z,91.34
2022-10-22T12:58:07.393Z,90.26
2022-10-22T13:03:26.678Z,89.03
2022-10-22T13:08:47.489Z,88.14
2022-10-22T13:13:51.038Z,86.17
2022-10-22T13:18:55.984Z,85.78
2022-10-22T13:24:00.868Z,85.55
2022-10-22T13:29:10.509Z,83.12
2022-10-22T13:34:18.419Z,83.11
2022-10-22T13:39:23.073Z,84.04
2022-10-22T13:44:25.971Z,85.11
2022-10-22T13:49:30.176Z,87.02
2022-10-22T13:54:33.077Z,87.72
2022-10-22T13:59:35.868Z,88.40
2022-10-22T14:04:42.048Z,87.74
2022-10-22T14:09:45.239Z,86.15
2022-10-22T14:14:48.170Z,84.00
2022-10-22T14:19:52.906Z,83.87
2022-10-22T14:24:55.741Z,83.15
2022-10-22T14:29:59.634Z,81.41
2022-10-22T14:35:04.015Z,80.53
2022-10-22T14:40:08.451Z,80.43
2022-10-22T14:45:17.075Z,83.58
2022-10-22T14:50:21.595Z,85.42
2022-10-22T14:55:26.203Z,86.96
2022-10-22T15:00:29.028Z,87.47
2022-10-22T15:05:33.225Z,88.19
2022-10-22T15:10:38.263Z,90.49
2022-10-22T15:15:43.819Z,92.55
2022-10-22T15:20:56.419Z,94.66
2022-10-22T15:25:59.594Z,95.45
2022-10-22T15:31:02.567Z,95.17
2022-10-22T15:36:14.113Z,96.53
2022-10-22T15:41:16.927Z,96.29
2022-10-22T15:46:21.770Z,97.13
2022-10-22T15:51:26.136Z,96.07
2022-10-22T15:56:30.598Z,98.33
2022-10-22T16:01:36.892Z,99.20
2022-10-22T16:06:43.363Z,100.00
2022-10-22T16:11:46.746Z,100.00
2022-10-22T16:16:51.808Z,100.00
2022-10-22T16:21:59.377Z,100.00
2022-10-22T16:27:02.291Z,100.00
2022-10-22T16:32:08.089Z,100.00
2022-10-22T16:37:12.292Z,100.00
2022-10-22T16:42:22.402Z,100.00
2022-10-22T16:47:25.580Z,100.00
2022-10-22T16:52:34.742Z,100.00
2022-10-22T16:58:02.067Z,100.00
2022-10-22T17:03:08.563Z,100.00
2022-10-22T17:08:19.966Z,100.00
2022-10-22T17:13:27.446Z,100.00
2022-10-22T17:23:55.339Z,100.00
2022-10-22T17:29:01.496Z,100.00
2022-10-22T17:34:09.284Z,100.00
2022-10-22T17:39:18.978Z,100.00
2022-10-22T17:44:22.141Z,100.00
2022-10-22T17:49:25.009Z,100.00
2022-10-22T17:54:29.544Z,100.00
2022-10-22T17:59:33.242Z,100.00
2022-10-22T18:04:36.943Z,100.00
2022-10-22T18:09:42.864Z,100.00
2022-10-22T18:14:47.438Z,100.00
2022-10-22T18:19:50.508Z,100.00
2022-10-22T18:24:55.374Z,100.00
2022-10-22T18:29:58.228Z,100.00
2022-10-22T18:35:01.324Z,100.00
2022-10-22T18:40:08.764Z,100.00
2022-10-22T18:45:17.696Z,100.00
2022-10-22T18:50:20.726Z,100.00
2022-10-22T18:55:25.000Z,100.00
2022-10-22T19:00:32.486Z,100.00
2022-10-22T19:05:35.950Z,100.00
2022-10-22T19:10:40.400Z,100.00
2022-10-22T19:15:43.293Z,100.00
2022-10-22T19:20:48.471Z,100.00
2022-10-22T19:26:02.521Z,100.00
2022-10-22T19:31:06.449Z,100.00
2022-10-22T19:36:11.898Z,100.00
2022-10-22T19:41:21.231Z,100.00
2022-10-22T19:46:25.697Z,100.00
2022-10-22T19:51:30.778Z,100.00
2022-10-22T19:56:37.679Z,100.00
2022-10-22T20:01:40.546Z,100.00
2022-10-22T20:06:46.637Z,100.00
2022-10-22T20:11:50.975Z,100.00
2022-10-22T20:17:01.246Z,100.00
2022-10-22T20:22:28.829Z,100.00
2022-10-22T20:28:23.827Z,100.00
2022-10-22T20:33:29.438Z,100.00
2022-10-22T20:38:32.387Z,100.00
2022-10-22T20:43:35.711Z,100.00
2022-10-22T20:48:40.938Z,100.00
2022-10-22T20:53:43.818Z,100.00
2022-10-22T20:58:48.590Z,100.00
2022-10-22T21:03:53.959Z,100.00
2022-10-22T21:08:56.955Z,100.00
2022-10-22T21:14:03.681Z,100.00
2022-10-22T21:19:07.813Z,100.00
2022-10-22T21:24:11.169Z,100.00
2022-10-22T21:29:14.483Z,100.00
2022-10-22T21:34:18.729Z,100.00
2022-10-22T21:39:21.617Z,100.00
2022-10-22T21:44:24.416Z,100.00
2022-10-22T21:49:28.507Z,100.00
2022-10-22T21:54:31.384Z,100.00
2022-10-22T21:59:37.629Z,100.00
2022-10-22T22:04:42.628Z,100.00
2022-10-22T22:09:45.430Z,100.00
2022-10-22T22:14:50.707Z,100.00
2022-10-22T22:19:55.016Z,100.00
2022-10-22T22:24:57.809Z,100.00
2022-10-22T22:30:03.141Z,100.00
2022-10-22T22:35:07.976Z,100.00
2022-10-22T22:40:13.958Z,100.00
2022-10-22T22:45:16.980Z,100.00
2022-10-22T22:50:21.203Z,100.00
2022-10-22T22:55:24.107Z,100.00
2022-10-22T23:00:27.058Z,100.00
2022-10-22T23:05:31.224Z,100.00
2022-10-22T23:10:33.978Z,100.00
2022-10-22T23:15:40.318Z,100.00
2022-10-22T23:20:44.401Z,100.00
2022-10-22T23:25:47.231Z,100.00
2022-10-22T23:30:52.933Z,100.00
2022-10-22T23:35:57.211Z,100.00
2022-10-22T23:41:00.257Z,100.00
2022-10-22T23:46:03.059Z,100.00
2022-10-22T23:51:08.678Z,100.00
2022-10-22T23:56:13.945Z,100.00
